ADDS METAR Data INFO
IDs: Format: Raw Decoded Include TAF

Data at: 1332 UTC 19 Jul 2018

KEKM 191252Z 15006KT 10SM CLR 22/14 A3005 RMK AO2
KEKM 191152Z 00000KT 10SM CLR 18/14 A3005 RMK AO2
KEKM 191052Z 00000KT 10SM CLR 17/14 A3005 RMK AO2
KEKM 190050Z 33003KT 10SM CLR 23/13 A3004 RMK AO2 LAST
KEKM 182350Z 34008KT 10SM SCT060 25/13 A3004 RMK AO2
KEKM 182250Z 02004KT 10SM SCT060 27/12 A3004 RMK AO2
KEKM 182150Z 00000KT 10SM SCT060 27/11 A3005 RMK AO2
KEKM 182050Z 00000KT 10SM SCT060 26/11 A3006 RMK AO2
KEKM 181950Z 36004KT 10SM SCT060 27/12 A3008 RMK AO2
KEKM 181850Z 00000KT 10SM SCT050 27/12 A3009 RMK AO2
KEKM 181750Z 01004KT 10SM CLR 26/12 A3010 RMK AO2
KEKM 181652Z 12005KT 10SM SCT045 25/12 A3011 RMK AO2
KEKM 181552Z 01006KT 10SM SCT039 24/13 A3012 RMK AO2
KEKM 181452Z 00000KT 10SM CLR 23/14 A3012 RMK AO2
KEKM 181352Z 00000KT 10SM CLR 20/13 A3013 RMK AO2
KEKM 181252Z 00000KT 10SM CLR 18/13 A3014 RMK AO2
KEKM 181152Z 00000KT 10SM CLR 16/12 A3013 RMK AO2
KEKM 181052Z 00000KT 10SM CLR 14/12 A3013 RMK AO2